Tangshan, China
Current Conditions -  °F | °C
As of 8:30 PM on Monday 29 Dec 2014 (Local Time) from ZBTJ Reporting Station
Haze Haze  
Wind Chill: 36°   Ceiling: Unl
Heat Index: 36°   Visibility: 0.93mi
Dew Point: 16°   Wind: 2mph
Humidity: 44%   Direction: 220°SW
Pressure: 29.94"   Gusts: NA
Location:  39.62°N, 118.19°E
Report Text: ZBTJ 291230Z 22001MPS 1500 HZ NSC 02/M09 Q1014 BECMGTL13001400 HZ
Loading
Personal Weather Stations






























Interactive Weather Map New forecast layout! Learn more

10-Day Weather Forecast

Advertisements
Track Severe Weather on mobile